Chico, TX (76431)

2:30 PM CDT on May 05, 2015 (GMT -0500)
2 Miles South of Alvord | | Change Station
CLOSE
Current Station
Personal Weather Station
Location: Alvord, TX
Elevation: 853 ft
Nearby Weather Stations

Elev 853 ft 33.33 °N, 97.70 °W | Updated 8 minutes ago

Overcast
Overcast
76.5 °F
Feels Like 78 °F
N
18.6
Wind Variable Wind from SSE

Today
High -- | Low -- °F
--% Chance of Precip.
Yesterday
High -- | Low -- °F
Precip. -- in
6:39 AM 8:16 PM
Full, 97% visible
Pressure 29.97 in
Visibility 10.0 miles
Clouds Scattered Clouds 3400 ft
Mostly Cloudy 4300 ft
Mostly Cloudy 10000 ft
Heat Index 78 °F
Dew Point 65 °F
Humidity 68%
Rainfall 0.00 in
Snow Depth Not available.
UV 6 out of 12
Pollen 6.90 out of 12
Air Quality Not available.
Flu Activity Sporadic
METAR KXBP 051855Z AUTO 15015G19KT 10SM SCT034 BKN043 BKN100 24/18 A2997 RMK AO2 LTG DSNT W THRU N T02380179

More Conditions Fewer Conditions

Pressure 29.97 in
Visibility 10.0 miles
Clouds Scattered Clouds 3400 ft
Mostly Cloudy 4300 ft
Mostly Cloudy 10000 ft
Heat Index 78 °F
Dew Point 65 °F
Humidity 68%
Rainfall 0.00 in
Snow Depth Not available.
UV 6 out of 12
Pollen 6.90 out of 12
Air Quality Not available.
Flu Activity Sporadic
METAR KXBP 051855Z AUTO 15015G19KT 10SM SCT034 BKN043 BKN100 24/18 A2997 RMK AO2 LTG DSNT W THRU N T02380179

More Conditions Fewer Conditions

Nowcast | as of 12:49 PM CDT on May 5, 2015

Scattered showers and isolated thunderstorms will occur for much of the afternoon. Areas most likely to see rainfall will be generally west of US 281...west of a line from Bowie...to Lampasas. Another area of scattered showers will occur along and north of Interstate 45...from Centerville to near Denison. Movement of the scattered showers is north-northeast...at less than 20 mph.

×

10-Day Weather Forecast

Almanac

Astronomy

May. 05, 2015 Rise Set
Actual Time
Civil Twilight
Nautical Twilight
Astronomical Twilight
Moon
Length of Visible Light
Length of Day
Tomorrow will be .
, % of the Moon is Illuminated

Today's Extremes

State Highs State Lows

Community

WunderPhotos

Upload Photos

1,818,957 photos uploaded!

WunderBlogs® & News

Nearby

Air Quality

  Air Quality AQ Index Pollutant
Not available.

Snow Depth

Station Depth Elevation

Earthquake Activity

City Distance Mag. Time & Date
Minimum magnitude displayed is 2.5.

Coastal Water Temperatures

Place Temperature

Stations

Nearby Weather Stations

Station Location Temp. Windchill Dew Point Humidity Wind Precip. Elev Updated Type